Lefors, Texas
Current Conditions -  °F | °C
As of 9:55 PM on Friday 24 Oct 2014 (Local Time) from KPPA Reporting Station
Clear Clear  
Wind Chill: 59°   Ceiling: Unl
Heat Index: 59°   Visibility: 10mi
Dew Point: 48°   Wind: 9mph
Humidity: 66%   Direction: 200°SSW
Pressure: 30.13"   Gusts: NA
Location:  35.44°N, 100.81°W
Report Text: KPPA 250255Z AUTO 20008KT 10SM CLR 15/09 A3013 RMK AO2 6//// T01510088 PNO
Loading
Personal Weather Stations






























Interactive Weather Map
Tropical Storm Tracking
New forecast layout! Learn more

10-Day Weather Forecast

Advertisements
Track Severe Weather on mobile